createdAt,value
2019-04-04T00:00:07.088Z,85.75
2019-04-04T00:01:07.190Z,85.86
2019-04-04T00:02:06.872Z,85.61
2019-04-04T00:03:06.862Z,86.03
2019-04-04T00:04:06.898Z,86.42
2019-04-04T00:05:06.857Z,86.11
2019-04-04T00:06:06.864Z,85.73
2019-04-04T00:07:06.846Z,85.6
2019-04-04T00:08:06.852Z,85.77
2019-04-04T00:09:06.854Z,85.79
2019-04-04T00:10:06.854Z,86.15
2019-04-04T00:11:06.853Z,85.78
2019-04-04T00:12:08.031Z,85.63
2019-04-04T00:13:06.858Z,85.92
2019-04-04T00:14:06.845Z,85.52
2019-04-04T00:15:06.828Z,85.74
2019-04-04T00:16:06.850Z,85.49
2019-04-04T00:17:06.856Z,85.45
2019-04-04T00:18:06.848Z,85.81
2019-04-04T00:19:06.827Z,85.68
2019-04-04T00:20:06.876Z,85.26
2019-04-04T00:21:06.866Z,85.5
2019-04-04T00:22:07.100Z,85.67
2019-04-04T00:23:07.736Z,85.51
2019-04-04T00:24:07.053Z,85.06
2019-04-04T00:25:09.578Z,85.85
2019-04-04T00:26:06.844Z,85.48
2019-04-04T00:27:06.831Z,85.53
2019-04-04T00:28:06.825Z,85.55
2019-04-04T00:29:06.861Z,85.57
2019-04-04T00:30:06.833Z,85.74
2019-04-04T00:31:06.832Z,86.18
2019-04-04T00:32:06.808Z,86.29
2019-04-04T00:33:06.828Z,86.02
2019-04-04T00:34:06.827Z,86.12
2019-04-04T00:35:06.867Z,85.68
2019-04-04T00:36:06.804Z,86.18
2019-04-04T00:37:06.814Z,86.38
2019-04-04T00:38:07.554Z,86.87
2019-04-04T00:39:09.045Z,86.28
2019-04-04T00:40:06.805Z,86.32
2019-04-04T00:41:06.797Z,86.43
2019-04-04T00:42:06.807Z,87.11
2019-04-04T00:43:06.815Z,86.55
2019-04-04T00:44:06.912Z,86.39
2019-04-04T00:45:06.829Z,86.67
2019-04-04T00:46:06.786Z,86.82
2019-04-04T00:47:06.790Z,87.1
2019-04-04T00:48:06.775Z,86.95
2019-04-04T00:49:06.815Z,86.47
2019-04-04T00:50:06.870Z,86.45
2019-04-04T00:51:07.910Z,85.73
2019-04-04T00:52:09.911Z,86.64
2019-04-04T00:53:06.791Z,86.11
2019-04-04T00:54:06.799Z,86.48
2019-04-04T00:55:06.835Z,86.44
2019-04-04T00:56:06.806Z,86.96
2019-04-04T00:57:06.768Z,86.12
2019-04-04T00:58:06.773Z,85.93
2019-04-04T00:59:06.824Z,86.13
2019-04-04T01:00:06.831Z,86.11
2019-04-04T01:01:06.781Z,86.39
2019-04-04T01:02:06.775Z,86.48
2019-04-04T01:03:06.822Z,86.9
2019-04-04T01:04:06.800Z,86.92
2019-04-04T01:05:06.759Z,86.47
2019-04-04T01:06:06.857Z,86.23
2019-04-04T01:07:06.782Z,86.94
2019-04-04T01:08:07.517Z,86.74
2019-04-04T01:09:11.217Z,86.32
2019-04-04T01:10:06.769Z,85.98
2019-04-04T01:11:06.764Z,85.89
2019-04-04T01:12:06.752Z,85.63
2019-04-04T01:13:06.753Z,85.65
2019-04-04T01:14:06.745Z,86.08
2019-04-04T01:15:06.780Z,86.28
2019-04-04T01:16:06.747Z,86.39
2019-04-04T01:17:06.747Z,86.69
2019-04-04T01:18:07.734Z,86.43
2019-04-04T01:19:09.571Z,86.36
2019-04-04T01:20:06.766Z,85.73
2019-04-04T01:21:06.728Z,85.65
2019-04-04T01:22:06.752Z,85.53
2019-04-04T01:23:06.742Z,85.51
2019-04-04T01:24:06.792Z,85.3
2019-04-04T01:25:06.806Z,85.33
2019-04-04T01:26:06.734Z,85.48
2019-04-04T01:27:06.944Z,85.82
2019-04-04T01:28:08.101Z,86.3
2019-04-04T01:29:10.022Z,85.61
2019-04-04T01:30:06.746Z,86.07
2019-04-04T01:31:06.747Z,86.08
2019-04-04T01:32:06.754Z,85.98
2019-04-04T01:33:06.731Z,86.45
2019-04-04T01:34:06.722Z,86.99
2019-04-04T01:35:06.725Z,86.59
2019-04-04T01:36:06.763Z,86.64
2019-04-04T01:37:06.729Z,86.93
2019-04-04T01:38:06.711Z,86.58
2019-04-04T01:39:06.724Z,86.03
2019-04-04T01:40:06.710Z,86.29
2019-04-04T01:41:06.737Z,85.65
2019-04-04T01:42:07.130Z,85.43
2019-04-04T01:43:08.804Z,85.3
2019-04-04T01:44:06.718Z,85.36
2019-04-04T01:45:06.746Z,85.48
2019-04-04T01:46:06.718Z,85.12
2019-04-04T01:47:08.128Z,85.2
2019-04-04T01:48:06.825Z,85.23
2019-04-04T01:49:06.802Z,85.2
2019-04-04T01:50:06.709Z,85.16
2019-04-04T01:51:07.867Z,85.35
2019-04-04T01:52:06.697Z,85.49
2019-04-04T01:53:06.720Z,85.3
2019-04-04T01:54:06.705Z,85.46
2019-04-04T01:55:06.699Z,85.11
2019-04-04T01:56:06.997Z,84.9
2019-04-04T01:57:08.015Z,84.86
2019-04-04T01:58:07.892Z,84.98
2019-04-04T01:59:06.744Z,84.95
2019-04-04T02:00:06.725Z,85.18
2019-04-04T02:01:06.682Z,85.17
2019-04-04T02:02:06.679Z,84.92
2019-04-04T02:03:06.711Z,85.15
2019-04-04T02:04:06.695Z,85.63
2019-04-04T02:05:06.684Z,86.5
2019-04-04T02:06:06.721Z,85.81
2019-04-04T02:07:06.698Z,85.46
2019-04-04T02:08:06.705Z,85.02
2019-04-04T02:09:06.694Z,85.03
2019-04-04T02:10:06.685Z,85.32
2019-04-04T02:11:07.206Z,85.17
2019-04-04T02:12:07.849Z,85.21
2019-04-04T02:13:09.454Z,85.05
2019-04-04T02:14:06.661Z,85.08
2019-04-04T02:15:06.708Z,84.89
2019-04-04T02:16:06.722Z,84.69
2019-04-04T02:17:06.673Z,85.31
2019-04-04T02:18:06.668Z,84.85
2019-04-04T02:19:06.646Z,84.8
2019-04-04T02:20:06.695Z,85.12
2019-04-04T02:21:06.720Z,85.67
2019-04-04T02:22:06.729Z,85.66
2019-04-04T02:23:06.660Z,85.83
2019-04-04T02:24:06.667Z,85.47
2019-04-04T02:25:06.749Z,86.35
2019-04-04T02:26:06.740Z,85.8
2019-04-04T02:27:06.905Z,85.71
2019-04-04T02:28:06.881Z,85.44
2019-04-04T02:29:06.689Z,85.35
2019-04-04T02:30:06.648Z,85.07
2019-04-04T02:31:06.688Z,85.04
2019-04-04T02:32:06.681Z,84.85
2019-04-04T02:33:06.672Z,84.57
2019-04-04T02:34:07.880Z,84.99
2019-04-04T02:35:09.977Z,85.22
2019-04-04T02:36:06.646Z,84.5
2019-04-04T02:37:06.657Z,84.55
2019-04-04T02:38:06.648Z,84.68
2019-04-04T02:39:06.683Z,84.37
2019-04-04T02:40:08.672Z,84.17
2019-04-04T02:41:06.640Z,84.05
2019-04-04T02:42:06.644Z,84
2019-04-04T02:43:06.666Z,84.17
2019-04-04T02:44:06.639Z,84.29
2019-04-04T02:45:06.716Z,84.87
2019-04-04T02:46:10.953Z,84.87
2019-04-04T02:47:06.624Z,85.12
2019-04-04T02:48:06.667Z,85.27
2019-04-04T02:49:06.619Z,85.17
2019-04-04T02:50:06.628Z,85.54
2019-04-04T02:51:07.901Z,85.7
2019-04-04T02:52:06.643Z,85.6
2019-04-04T02:53:06.655Z,85.14
2019-04-04T02:54:06.781Z,84.76
2019-04-04T02:55:06.627Z,84.64
2019-04-04T02:56:06.747Z,84.3
2019-04-04T02:57:09.144Z,84.38
2019-04-04T02:58:06.639Z,84.77
2019-04-04T02:59:06.607Z,84.44
2019-04-04T03:00:06.601Z,84.35
2019-04-04T03:01:06.595Z,84.49
2019-04-04T03:02:06.595Z,84.72
2019-04-04T03:03:09.095Z,84.37
2019-04-04T03:04:06.605Z,84.22
2019-04-04T03:05:06.627Z,84.22
2019-04-04T03:06:06.586Z,84.53
2019-04-04T03:07:06.608Z,84.54
2019-04-04T03:08:06.604Z,84.5
2019-04-04T03:09:09.280Z,84.32
2019-04-04T03:10:06.598Z,84.41
2019-04-04T03:11:06.577Z,84.82
2019-04-04T03:12:06.583Z,84.59
2019-04-04T03:13:06.590Z,84.56
2019-04-04T03:14:06.611Z,85.4
2019-04-04T03:15:08.938Z,86.33
2019-04-04T03:16:06.870Z,86.07
2019-04-04T03:17:06.630Z,85.49
2019-04-04T03:18:06.599Z,85.49
2019-04-04T03:19:10.873Z,85.32
2019-04-04T03:20:06.601Z,85.14
2019-04-04T03:21:06.601Z,84.88
2019-04-04T03:22:06.574Z,84.88
2019-04-04T03:23:06.603Z,84.67
2019-04-04T03:24:07.253Z,84.97
2019-04-04T03:25:06.578Z,84.68
2019-04-04T03:26:06.585Z,85.08
2019-04-04T03:27:06.589Z,85.81
2019-04-04T03:28:06.600Z,85.53
2019-04-04T03:29:10.160Z,85.84
2019-04-04T03:30:12.882Z,85.5
2019-04-04T03:31:06.560Z,85.55
2019-04-04T03:32:13.085Z,85.45
2019-04-04T03:33:06.599Z,85.42
2019-04-04T03:34:10.806Z,85
2019-04-04T03:35:06.551Z,85.19
2019-04-04T03:36:06.549Z,85.03
2019-04-04T03:37:08.949Z,84.79
2019-04-04T03:38:06.574Z,85.54
2019-04-04T03:39:06.610Z,85.25
2019-04-04T03:40:06.643Z,84.79
2019-04-04T03:41:06.586Z,85.04
2019-04-04T03:42:07.963Z,85.71
2019-04-04T03:43:06.608Z,85.22
2019-04-04T03:44:06.583Z,84.93
2019-04-04T03:45:09.630Z,84.8
2019-04-04T03:46:06.543Z,85.19
2019-04-04T03:47:09.805Z,85.34
2019-04-04T03:48:06.524Z,85.28
2019-04-04T03:49:06.555Z,84.65
2019-04-04T03:50:06.543Z,85.07
2019-04-04T03:51:06.575Z,84.8
2019-04-04T03:52:09.944Z,84.51
2019-04-04T03:53:06.555Z,85.56
2019-04-04T03:54:06.559Z,85.42
2019-04-04T03:55:06.526Z,85.59
2019-04-04T03:56:06.564Z,85.44
2019-04-04T03:57:10.880Z,84.92
2019-04-04T03:58:07.314Z,85
2019-04-04T03:59:06.810Z,85.02
2019-04-04T04:00:07.444Z,85.68
2019-04-04T04:01:06.542Z,85
2019-04-04T04:02:06.520Z,84.54
2019-04-04T04:03:06.577Z,84.66
2019-04-04T04:04:06.519Z,84.75
2019-04-04T04:05:06.519Z,84.6
2019-04-04T04:06:08.806Z,84.55
2019-04-04T04:07:06.551Z,85.21
2019-04-04T04:08:06.540Z,85.69
2019-04-04T04:09:06.502Z,85.38
2019-04-04T04:10:06.513Z,85.05
2019-04-04T04:11:06.530Z,85.04
2019-04-04T04:12:10.004Z,85
2019-04-04T04:13:06.484Z,85.24
2019-04-04T04:14:06.527Z,85
2019-04-04T04:15:06.528Z,85.14
2019-04-04T04:16:06.521Z,84.83
2019-04-04T04:17:08.904Z,84.84
2019-04-04T04:18:06.508Z,84.97
2019-04-04T04:19:06.496Z,84.68
2019-04-04T04:20:06.541Z,84.81
2019-04-04T04:21:09.561Z,85.02
2019-04-04T04:22:06.516Z,85.09
2019-04-04T04:23:06.507Z,84.98
2019-04-04T04:24:06.475Z,85.51
2019-04-04T04:25:06.477Z,85.04
2019-04-04T04:26:09.299Z,85.52
2019-04-04T04:27:06.504Z,86.06
2019-04-04T04:28:06.512Z,86.1
2019-04-04T04:29:06.482Z,85.22
2019-04-04T04:30:07.533Z,85.28
2019-04-04T04:31:06.471Z,85.4
2019-04-04T04:32:06.466Z,85.21
2019-04-04T04:33:06.515Z,84.87
2019-04-04T04:34:07.593Z,85.08
2019-04-04T04:35:08.465Z,84.86
2019-04-04T04:36:09.668Z,84.58
2019-04-04T04:37:06.468Z,85.22
2019-04-04T04:38:06.465Z,85.35
2019-04-04T04:39:06.844Z,85.33
2019-04-04T04:40:06.478Z,85.07
2019-04-04T04:41:06.572Z,85.19
2019-04-04T04:42:07.441Z,85.09
2019-04-04T04:43:06.523Z,84.72
2019-04-04T04:44:06.726Z,84.8
2019-04-04T04:45:10.832Z,85.2
2019-04-04T04:46:06.571Z,85.5
2019-04-04T04:47:06.461Z,85.34
2019-04-04T04:48:06.476Z,85.52
2019-04-04T04:49:06.466Z,85.65
2019-04-04T04:50:09.468Z,85.69
2019-04-04T04:51:06.445Z,85.28
2019-04-04T04:52:06.470Z,85.18
2019-04-04T04:53:06.517Z,85.11
2019-04-04T04:54:06.436Z,84.93
2019-04-04T04:55:06.451Z,84.58
2019-04-04T04:56:06.489Z,84.91
2019-04-04T04:57:06.457Z,84.64
2019-04-04T04:58:09.700Z,84.49
2019-04-04T04:59:06.462Z,83.94
2019-04-04T05:00:06.431Z,83.94
2019-04-04T05:01:06.422Z,84.78
2019-04-04T05:02:06.440Z,85.23
2019-04-04T05:03:06.439Z,85.46
2019-04-04T05:04:06.487Z,86.01
2019-04-04T05:05:06.469Z,86.79
2019-04-04T05:06:06.527Z,86.46
2019-04-04T05:07:07.338Z,86.73
2019-04-04T05:08:09.610Z,87.17
2019-04-04T05:09:06.435Z,87.38
2019-04-04T05:10:06.446Z,86.57
2019-04-04T05:11:06.449Z,87.71
2019-04-04T05:12:06.433Z,87.64
2019-04-04T05:13:06.440Z,88.38
2019-04-04T05:14:06.423Z,89.66
2019-04-04T05:15:06.563Z,90.11
2019-04-04T05:16:08.831Z,90.86
2019-04-04T05:17:08.058Z,90.71
2019-04-04T05:18:06.451Z,90.59
2019-04-04T05:19:06.440Z,90.35
2019-04-04T05:20:06.442Z,90.51
2019-04-04T05:21:06.479Z,90.54
2019-04-04T05:22:07.097Z,90.4
2019-04-04T05:23:06.418Z,89.87
2019-04-04T05:24:06.424Z,90.32
2019-04-04T05:25:08.185Z,90.09
2019-04-04T05:26:09.399Z,89.88
2019-04-04T05:27:06.737Z,90.25
2019-04-04T05:28:06.495Z,90.73
2019-04-04T05:29:06.409Z,90.89
2019-04-04T05:30:08.275Z,90.69
2019-04-04T05:31:06.404Z,90.86
2019-04-04T05:32:06.418Z,90.67
2019-04-04T05:33:06.394Z,90.68
2019-04-04T05:34:06.466Z,90.62
2019-04-04T05:35:06.471Z,90.34
2019-04-04T05:36:06.391Z,90.23
2019-04-04T05:37:07.183Z,90.38
2019-04-04T05:38:07.816Z,90.75
2019-04-04T05:39:06.453Z,90.86
2019-04-04T05:40:06.412Z,90.96
2019-04-04T05:41:06.441Z,91.44
2019-04-04T05:42:06.389Z,91.26
2019-04-04T05:43:06.425Z,90.93
2019-04-04T05:44:08.871Z,90.54
2019-04-04T05:45:06.376Z,90.04
2019-04-04T05:46:06.421Z,89.9
2019-04-04T05:47:06.442Z,90.11
2019-04-04T05:48:06.428Z,89.75
2019-04-04T05:49:08.209Z,90.07
2019-04-04T05:50:06.393Z,90.6
2019-04-04T05:51:06.425Z,90.49
2019-04-04T05:52:08.789Z,90.23
2019-04-04T05:53:06.366Z,89.96
2019-04-04T05:54:07.459Z,89.91
2019-04-04T05:55:09.874Z,90.33
2019-04-04T05:56:06.666Z,90.6
2019-04-04T05:57:06.408Z,90.39
2019-04-04T05:58:06.416Z,89.69
2019-04-04T05:59:06.358Z,89.65
2019-04-04T06:00:06.429Z,89.75
2019-04-04T06:01:06.356Z,90.14
2019-04-04T06:02:06.405Z,90.05
2019-04-04T06:03:06.380Z,90.32
2019-04-04T06:04:06.380Z,90.37
2019-04-04T06:05:06.377Z,90.57
2019-04-04T06:06:06.416Z,91
2019-04-04T06:07:06.344Z,90.87
2019-04-04T06:08:08.078Z,90.77
2019-04-04T06:09:06.386Z,90.28
2019-04-04T06:10:06.336Z,90.67
2019-04-04T06:11:06.334Z,89.9
2019-04-04T06:12:06.355Z,90.78
2019-04-04T06:13:06.366Z,90.09
2019-04-04T06:14:06.378Z,90.19
2019-04-04T06:15:06.357Z,90.63
2019-04-04T06:16:06.330Z,90.68
2019-04-04T06:17:07.162Z,90.59
2019-04-04T06:18:06.432Z,90.68
2019-04-04T06:19:06.387Z,91.07
2019-04-04T06:20:06.315Z,91.27
2019-04-04T06:21:06.340Z,91.24
2019-04-04T06:22:06.407Z,91.15
2019-04-04T06:23:06.409Z,91.44
2019-04-04T06:24:06.339Z,90.8
2019-04-04T06:25:06.376Z,90.43
2019-04-04T06:26:07.538Z,90.31
2019-04-04T06:27:07.046Z,90.91
2019-04-04T06:28:06.418Z,91.12
2019-04-04T06:29:06.380Z,91.81
2019-04-04T06:30:06.379Z,91.69
2019-04-04T06:31:07.430Z,92.13
2019-04-04T06:32:06.339Z,92.29
2019-04-04T06:33:06.311Z,92.41
2019-04-04T06:34:09.850Z,92.96
2019-04-04T06:35:06.324Z,92.64
2019-04-04T06:36:06.420Z,91.9
2019-04-04T06:37:06.337Z,92.25
2019-04-04T06:38:06.376Z,92.18
2019-04-04T06:39:06.372Z,92.1
2019-04-04T06:40:06.363Z,92.17
2019-04-04T06:41:06.357Z,92.6
2019-04-04T06:42:06.330Z,91.93
2019-04-04T06:43:10.212Z,91.8
2019-04-04T06:44:06.342Z,92.53
2019-04-04T06:45:06.276Z,92.6
2019-04-04T06:46:06.375Z,92.43
2019-04-04T06:47:06.307Z,92.34
2019-04-04T06:48:06.282Z,91.85
2019-04-04T06:49:06.293Z,91.42
2019-04-04T06:50:07.960Z,91.06
2019-04-04T06:51:06.303Z,91.71
2019-04-04T06:52:09.094Z,91.1
2019-04-04T06:53:06.289Z,90.93
2019-04-04T06:54:06.305Z,91.7
2019-04-04T06:55:06.315Z,91.73
2019-04-04T06:56:06.374Z,92.09
2019-04-04T06:57:06.306Z,91.7
2019-04-04T06:58:09.226Z,91.9
2019-04-04T06:59:06.343Z,92.25
2019-04-04T07:00:06.322Z,92.14
2019-04-04T07:01:06.276Z,92.31
2019-04-04T07:02:06.374Z,91.69
2019-04-04T07:03:06.266Z,91.44
2019-04-04T07:04:06.335Z,92.08
2019-04-04T07:05:06.965Z,91.38
2019-04-04T07:06:08.022Z,91.16
2019-04-04T07:07:06.372Z,91.31
2019-04-04T07:08:06.302Z,90.99
2019-04-04T07:09:06.260Z,91.25
2019-04-04T07:10:07.544Z,90.97
2019-04-04T07:11:15.592Z,90.89
2019-04-04T07:12:06.668Z,90.73
2019-04-04T07:13:20.790Z,91.29
2019-04-04T07:14:06.417Z,91.15
2019-04-04T07:15:06.297Z,91.65
2019-04-04T07:16:08.077Z,91.49
2019-04-04T07:17:08.454Z,91.14
2019-04-04T07:18:06.281Z,91.25
2019-04-04T07:19:07.810Z,91.71
2019-04-04T07:20:06.240Z,91.48
2019-04-04T07:21:06.343Z,91.35
2019-04-04T07:22:06.281Z,91.59
2019-04-04T07:23:06.246Z,91.17
2019-04-04T07:24:06.314Z,91.07
2019-04-04T07:25:06.835Z,91.13
2019-04-04T07:26:06.319Z,91.28
2019-04-04T07:27:06.274Z,91.25
2019-04-04T07:28:06.270Z,91.64
2019-04-04T07:29:06.303Z,91.28
2019-04-04T07:30:06.238Z,91.91
2019-04-04T07:31:06.234Z,92.02
2019-04-04T07:32:07.116Z,92.54
2019-04-04T07:33:06.224Z,91.92
2019-04-04T07:34:06.256Z,92.31
2019-04-04T07:35:06.267Z,92.14
2019-04-04T07:36:06.272Z,92.71
2019-04-04T07:37:06.243Z,93.26
2019-04-04T07:38:06.254Z,93.37
2019-04-04T07:39:06.267Z,93.71
2019-04-04T07:40:06.212Z,94.19
2019-04-04T07:41:08.229Z,94.52
2019-04-04T07:42:06.206Z,94.15
2019-04-04T07:43:08.554Z,94.61
2019-04-04T07:44:06.200Z,94.76
2019-04-04T07:45:07.150Z,94.83
2019-04-04T07:46:15.946Z,94.73
2019-04-04T07:47:06.283Z,94.3
2019-04-04T07:48:06.227Z,94.58
2019-04-04T07:49:06.211Z,94.17
2019-04-04T07:50:06.197Z,94.39
2019-04-04T07:51:06.209Z,93.87
2019-04-04T07:52:06.223Z,93.9
2019-04-04T07:53:06.218Z,94.51
2019-04-04T07:54:07.266Z,94.69
2019-04-04T07:55:09.866Z,94.62
2019-04-04T07:56:06.241Z,94.6
2019-04-04T07:57:07.173Z,94.58
2019-04-04T07:58:06.181Z,94.9
2019-04-04T07:59:06.176Z,94.51
2019-04-04T08:00:06.179Z,94.91
2019-04-04T08:01:06.182Z,94.96
2019-04-04T08:02:06.214Z,95.45
2019-04-04T08:03:07.510Z,95.63
2019-04-04T08:04:06.682Z,95.05
2019-04-04T08:05:06.233Z,95.11
2019-04-04T08:06:06.231Z,95.18
2019-04-04T08:07:06.181Z,94.93
2019-04-04T08:08:06.168Z,94.91
2019-04-04T08:09:06.217Z,94.82
2019-04-04T08:10:06.250Z,95.27
2019-04-04T08:11:06.244Z,95.09
2019-04-04T08:12:06.166Z,94.88
2019-04-04T08:13:06.155Z,95.06
2019-04-04T08:14:06.193Z,95.11
2019-04-04T08:15:06.172Z,95.04
2019-04-04T08:16:06.173Z,95.31
2019-04-04T08:17:06.164Z,95.13
2019-04-04T08:18:06.401Z,95.31
2019-04-04T08:19:06.502Z,95.36
2019-04-04T08:20:06.174Z,95.59
2019-04-04T08:21:06.180Z,95.25
2019-04-04T08:22:06.205Z,95.46
2019-04-04T08:23:06.151Z,95.08
2019-04-04T08:24:06.150Z,95.39
2019-04-04T08:25:06.139Z,94.99
2019-04-04T08:26:06.206Z,95.1
2019-04-04T08:27:06.182Z,94.95
2019-04-04T08:28:06.155Z,95.12
2019-04-04T08:29:06.162Z,95.04
2019-04-04T08:30:06.155Z,95.44
2019-04-04T08:31:06.184Z,95.43
2019-04-04T08:32:06.140Z,94.98
2019-04-04T08:33:06.148Z,95.56
2019-04-04T08:34:06.126Z,94.97
2019-04-04T08:35:06.115Z,95.01
2019-04-04T08:36:06.629Z,95.05
2019-04-04T08:37:06.138Z,96.19
2019-04-04T08:38:06.184Z,96.01
2019-04-04T08:39:06.151Z,95.59
2019-04-04T08:40:06.157Z,95.4
2019-04-04T08:41:06.192Z,95.4
2019-04-04T08:42:06.164Z,95.44
2019-04-04T08:43:06.178Z,95.47
2019-04-04T08:44:06.119Z,95.36
2019-04-04T08:45:07.030Z,96.03
2019-04-04T08:46:06.139Z,95.53
2019-04-04T08:47:06.112Z,95.91
2019-04-04T08:48:06.148Z,95.98
2019-04-04T08:49:06.110Z,95.41
2019-04-04T08:50:06.139Z,95.66
2019-04-04T08:51:06.112Z,95.47
2019-04-04T08:52:16.020Z,95.57
2019-04-04T08:53:06.115Z,95.25
2019-04-04T08:54:06.135Z,95.19
2019-04-04T08:55:06.102Z,95.56
2019-04-04T08:56:06.135Z,95.59
2019-04-04T08:57:06.111Z,95.26
2019-04-04T08:58:06.141Z,95.16
2019-04-04T08:59:06.104Z,94.88
2019-04-04T09:00:06.100Z,95.44
2019-04-04T09:01:06.109Z,95.46
2019-04-04T09:02:06.099Z,96.14
2019-04-04T09:03:06.089Z,95.73
2019-04-04T09:04:06.073Z,95.55
2019-04-04T09:05:11.564Z,95.86
2019-04-04T09:06:06.119Z,95.68
2019-04-04T09:07:07.284Z,95.13
2019-04-04T09:08:06.100Z,95.3
2019-04-04T09:09:06.120Z,95.67
2019-04-04T09:10:06.138Z,95.3
2019-04-04T09:11:06.156Z,95.35
2019-04-04T09:12:06.105Z,95.08
2019-04-04T09:13:06.136Z,95.84
2019-04-04T09:14:06.115Z,96.23
2019-04-04T09:15:06.089Z,95.88
2019-04-04T09:16:06.100Z,95.92
2019-04-04T09:17:06.064Z,95.85
2019-04-04T09:18:06.075Z,95.71
2019-04-04T09:19:06.074Z,96.18
2019-04-04T09:20:09.147Z,95.87
2019-04-04T09:21:06.109Z,95.97
2019-04-04T09:22:06.081Z,96.11
2019-04-04T09:23:06.151Z,95.72
2019-04-04T09:24:06.109Z,96.19
2019-04-04T09:25:06.114Z,95.47
2019-04-04T09:26:06.493Z,95.91
2019-04-04T09:27:06.050Z,95.91
2019-04-04T09:28:06.111Z,95.58
2019-04-04T09:29:06.088Z,95.78
2019-04-04T09:30:06.084Z,95.87
2019-04-04T09:31:06.092Z,95.78
2019-04-04T09:32:06.068Z,95.89
2019-04-04T09:33:06.071Z,96.07
2019-04-04T09:34:06.075Z,95.89
2019-04-04T09:35:06.103Z,96.18
2019-04-04T09:36:06.107Z,96
2019-04-04T09:37:08.622Z,95.94
2019-04-04T09:38:06.039Z,95.63
2019-04-04T09:39:06.040Z,95.45
2019-04-04T09:40:06.071Z,95.95
2019-04-04T09:41:06.062Z,95.74
2019-04-04T09:42:06.045Z,95.84
2019-04-04T09:43:06.024Z,96.2
2019-04-04T09:44:06.337Z,95.87
2019-04-04T09:45:06.113Z,96.14
2019-04-04T09:46:06.114Z,95.42
2019-04-04T09:47:06.133Z,95.84
2019-04-04T09:48:06.038Z,95.79
2019-04-04T09:49:06.026Z,95.48
2019-04-04T09:50:07.403Z,95.49
2019-04-04T09:51:07.144Z,95.85
2019-04-04T09:52:06.077Z,95.57
2019-04-04T09:53:06.045Z,95.69
2019-04-04T09:54:06.014Z,95.96
2019-04-04T09:55:06.010Z,94.99
2019-04-04T09:56:06.045Z,95.15
2019-04-04T09:57:06.036Z,95.32
2019-04-04T09:58:06.003Z,94.89
2019-04-04T09:59:06.031Z,95.35
2019-04-04T10:00:06.002Z,95.33
2019-04-04T10:01:06.630Z,96.08
2019-04-04T10:02:06.020Z,95.9
2019-04-04T10:03:06.052Z,95.55
2019-04-04T10:04:05.996Z,95.79
2019-04-04T10:05:06.237Z,95.55
2019-04-04T10:06:05.984Z,95.32
2019-04-04T10:07:06.277Z,95.35
2019-04-04T10:08:06.305Z,95.3
2019-04-04T10:09:15.355Z,95.14
2019-04-04T10:10:06.054Z,94.55
2019-04-04T10:11:05.976Z,94.61
2019-04-04T10:12:05.987Z,94.8
2019-04-04T10:13:05.979Z,94.69
2019-04-04T10:14:05.991Z,94.54
2019-04-04T10:15:06.011Z,94.14
2019-04-04T10:16:06.019Z,94.45
2019-04-04T10:17:06.006Z,94.32
2019-04-04T10:18:05.977Z,94.17
2019-04-04T10:19:05.972Z,94.07
2019-04-04T10:20:05.957Z,94.52
2019-04-04T10:21:11.969Z,94.18
2019-04-04T10:22:05.956Z,94.76
2019-04-04T10:23:06.058Z,94.25
2019-04-04T10:24:05.986Z,93.89
2019-04-04T10:25:05.992Z,94.01
2019-04-04T10:26:05.965Z,94.06
2019-04-04T10:27:05.990Z,94.1
2019-04-04T10:28:05.965Z,93.88
2019-04-04T10:29:06.156Z,93.71
2019-04-04T10:30:06.329Z,93.63
2019-04-04T10:31:05.987Z,93.77
2019-04-04T10:32:05.985Z,93.62
2019-04-04T10:33:05.938Z,93.82
2019-04-04T10:34:05.974Z,93.77
2019-04-04T10:35:05.952Z,94.52
2019-04-04T10:36:05.964Z,94.99
2019-04-04T10:37:05.957Z,94.72
2019-04-04T10:38:05.959Z,95.48
2019-04-04T10:39:05.972Z,95.07
2019-04-04T10:40:06.001Z,95.03
2019-04-04T10:41:05.986Z,95.22
2019-04-04T10:42:05.994Z,95.43
2019-04-04T10:43:05.930Z,95.46
2019-04-04T10:44:05.951Z,95.73
2019-04-04T10:45:06.009Z,95.34
2019-04-04T10:46:05.979Z,95.81
2019-04-04T10:47:05.933Z,95.75
2019-04-04T10:48:05.927Z,95.82
2019-04-04T10:49:08.175Z,96.09
2019-04-04T10:50:05.980Z,95.22
2019-04-04T10:51:05.956Z,96.02
2019-04-04T10:52:05.951Z,95.82
2019-04-04T10:53:06.065Z,95.64
2019-04-04T10:54:05.929Z,96.14
2019-04-04T10:55:05.916Z,96.07
2019-04-04T10:56:05.951Z,95.97
2019-04-04T10:57:05.991Z,96.05
2019-04-04T10:58:06.013Z,96.27
2019-04-04T10:59:06.103Z,95.45
2019-04-04T11:00:05.937Z,95.36
2019-04-04T11:01:05.951Z,95.8
2019-04-04T11:02:05.920Z,96.13
2019-04-04T11:03:05.934Z,96.06
2019-04-04T11:04:05.941Z,96.3
2019-04-04T11:05:05.982Z,96.18
2019-04-04T11:06:05.956Z,96.09
2019-04-04T11:07:05.920Z,96.11
2019-04-04T11:08:07.303Z,95.36
2019-04-04T11:09:05.908Z,95.89
2019-04-04T11:10:05.919Z,95.84
2019-04-04T11:11:05.895Z,96.31
2019-04-04T11:12:05.908Z,96.36
2019-04-04T11:13:06.407Z,96.32
2019-04-04T11:14:05.972Z,96.47
2019-04-04T11:15:05.878Z,96.03
2019-04-04T11:16:05.926Z,96.49
2019-04-04T11:17:05.903Z,96.14
2019-04-04T11:18:05.907Z,95.83
2019-04-04T11:19:05.896Z,95.74
2019-04-04T11:20:05.897Z,95.73
2019-04-04T11:21:05.871Z,96.02
2019-04-04T11:22:05.879Z,96.43
2019-04-04T11:23:05.905Z,96.42
2019-04-04T11:24:05.907Z,96.35
2019-04-04T11:25:05.910Z,96.66
2019-04-04T11:26:05.901Z,96.22
2019-04-04T11:27:06.253Z,95.88
2019-04-04T11:28:05.872Z,96.27
2019-04-04T11:29:05.888Z,96.98
2019-04-04T11:30:05.888Z,95.6
2019-04-04T11:31:05.893Z,94.96
2019-04-04T11:32:05.912Z,96.79
2019-04-04T11:33:05.896Z,96.98
2019-04-04T11:34:05.900Z,97.67
2019-04-04T11:35:06.249Z,96.68
2019-04-04T11:36:05.858Z,96.82
2019-04-04T11:37:05.850Z,96.19
2019-04-04T11:38:05.871Z,96.43
2019-04-04T11:39:05.909Z,95.62
2019-04-04T11:40:05.857Z,95.97
2019-04-04T11:41:05.865Z,95.77
2019-04-04T11:42:05.876Z,95.56
2019-04-04T11:43:05.845Z,95.51
2019-04-04T11:44:05.845Z,94.5
2019-04-04T11:45:05.883Z,94.51
2019-04-04T11:46:05.879Z,94.76
2019-04-04T11:47:05.883Z,95.07
2019-04-04T11:48:05.867Z,94.93
2019-04-04T11:49:05.844Z,95.31
2019-04-04T11:50:05.902Z,96.06
2019-04-04T11:51:05.883Z,94.87
2019-04-04T11:52:05.838Z,93.99
2019-04-04T11:53:05.848Z,94.65
2019-04-04T11:54:05.841Z,95.39
2019-04-04T11:55:06.002Z,95.04
2019-04-04T11:56:06.026Z,95.19
2019-04-04T11:57:06.084Z,95.29
2019-04-04T11:58:05.848Z,95.1
2019-04-04T11:59:08.103Z,94.98
2019-04-04T12:00:05.844Z,95.41
2019-04-04T12:01:05.848Z,95.28
2019-04-04T12:02:05.953Z,95.66
2019-04-04T12:03:05.820Z,95.7
2019-04-04T12:04:05.862Z,95.42
2019-04-04T12:05:05.838Z,95.69
2019-04-04T12:06:05.881Z,96.02
2019-04-04T12:07:05.862Z,95.75
2019-04-04T12:08:05.837Z,95.38
2019-04-04T12:09:05.837Z,94.99
2019-04-04T12:10:07.544Z,94.63
2019-04-04T12:11:05.813Z,95.49
2019-04-04T12:12:05.835Z,95
2019-04-04T12:13:05.855Z,95.29
2019-04-04T12:14:05.806Z,95.45
2019-04-04T12:15:05.839Z,95.06
2019-04-04T12:16:05.837Z,94.42
2019-04-04T12:17:05.839Z,94.92
2019-04-04T12:18:06.709Z,95.24
2019-04-04T12:19:05.887Z,95.09
2019-04-04T12:20:05.837Z,95.23
2019-04-04T12:21:05.828Z,95.32
2019-04-04T12:22:05.818Z,94.93
2019-04-04T12:23:05.814Z,95.49
2019-04-04T12:24:05.812Z,95.05
2019-04-04T12:25:05.796Z,94.8
2019-04-04T12:26:06.681Z,94.29
2019-04-04T12:27:05.776Z,94.08
2019-04-04T12:28:05.825Z,94.25
2019-04-04T12:29:05.788Z,94.57
2019-04-04T12:30:05.825Z,94.94
2019-04-04T12:31:05.767Z,94.94
2019-04-04T12:32:05.768Z,94.44
2019-04-04T12:33:05.763Z,94.51
2019-04-04T12:34:05.767Z,94.97
2019-04-04T12:35:06.672Z,94.43
2019-04-04T12:36:05.778Z,94.94
2019-04-04T12:37:05.785Z,94.23
2019-04-04T12:38:05.763Z,94.69
2019-04-04T12:39:05.751Z,94.22
2019-04-04T12:40:19.652Z,93.62
2019-04-04T12:41:05.752Z,93.69
2019-04-04T12:42:05.748Z,93.62
2019-04-04T12:43:05.803Z,93.84
2019-04-04T12:44:05.760Z,93.87
2019-04-04T12:45:05.770Z,94.88
2019-04-04T12:46:05.765Z,94.59
2019-04-04T12:47:05.758Z,94.58
2019-04-04T12:48:05.772Z,94.5
2019-04-04T12:49:05.782Z,94.59
2019-04-04T12:50:05.859Z,94.31
2019-04-04T12:51:05.825Z,94.21
2019-04-04T12:52:06.985Z,93.98
2019-04-04T12:53:05.757Z,94.85
2019-04-04T12:54:05.805Z,94.73
2019-04-04T12:55:06.669Z,94.63